sensor_id;sensor_type;location;lat;lon;timestamp;P1;durP1;ratioP1;P2;durP2;ratioP2
33864;SDS011;20159;51.072;13.526;2022-10-19T00:02:05;20.35;;;15.82;;
33864;SDS011;20159;51.072;13.526;2022-10-19T00:04:30;21.25;;;16.60;;
33864;SDS011;20159;51.072;13.526;2022-10-19T00:06:56;23.13;;;16.98;;
33864;SDS011;20159;51.072;13.526;2022-10-19T00:09:21;22.20;;;15.80;;
33864;SDS011;20159;51.072;13.526;2022-10-19T00:11:47;20.38;;;15.43;;
33864;SDS011;20159;51.072;13.526;2022-10-19T00:14:15;20.85;;;16.10;;
33864;SDS011;20159;51.072;13.526;2022-10-19T00:16:43;21.33;;;16.15;;
33864;SDS011;20159;51.072;13.526;2022-10-19T00:19:14;21.60;;;16.15;;
33864;SDS011;20159;51.072;13.526;2022-10-19T00:21:42;22.20;;;16.52;;
33864;SDS011;20159;51.072;13.526;2022-10-19T00:24:07;18.90;;;15.15;;
33864;SDS011;20159;51.072;13.526;2022-10-19T00:26:33;21.35;;;17.00;;
33864;SDS011;20159;51.072;13.526;2022-10-19T00:28:59;23.73;;;16.08;;
33864;SDS011;20159;51.072;13.526;2022-10-19T00:31:24;19.15;;;15.15;;
33864;SDS011;20159;51.072;13.526;2022-10-19T00:33:51;22.33;;;16.80;;
33864;SDS011;20159;51.072;13.526;2022-10-19T00:36:21;21.02;;;15.70;;
33864;SDS011;20159;51.072;13.526;2022-10-19T00:38:55;21.75;;;14.00;;
33864;SDS011;20159;51.072;13.526;2022-10-19T00:41:23;19.77;;;14.77;;
33864;SDS011;20159;51.072;13.526;2022-10-19T00:46:31;20.52;;;13.85;;
33864;SDS011;20159;51.072;13.526;2022-10-19T00:49:06;20.08;;;12.85;;
33864;SDS011;20159;51.072;13.526;2022-10-19T00:51:38;19.52;;;13.75;;
33864;SDS011;20159;51.072;13.526;2022-10-19T00:54:06;17.88;;;13.40;;
33864;SDS011;20159;51.072;13.526;2022-10-19T00:56:33;18.73;;;14.65;;
33864;SDS011;20159;51.072;13.526;2022-10-19T00:59:01;16.58;;;12.80;;
33864;SDS011;20159;51.072;13.526;2022-10-19T01:01:28;21.35;;;14.10;;
33864;SDS011;20159;51.072;13.526;2022-10-19T01:03:55;17.92;;;12.45;;
33864;SDS011;20159;51.072;13.526;2022-10-19T01:06:21;16.13;;;11.90;;
33864;SDS011;20159;51.072;13.526;2022-10-19T01:08:47;19.83;;;12.73;;
33864;SDS011;20159;51.072;13.526;2022-10-19T01:11:22;14.98;;;11.30;;
33864;SDS011;20159;51.072;13.526;2022-10-19T01:16:55;16.45;;;10.52;;
33864;SDS011;20159;51.072;13.526;2022-10-19T01:22:44;12.30;;;9.50;;
33864;SDS011;20159;51.072;13.526;2022-10-19T01:28:31;12.90;;;9.10;;
33864;SDS011;20159;51.072;13.526;2022-10-19T01:37:17;12.10;;;8.57;;
33864;SDS011;20159;51.072;13.526;2022-10-19T01:40:11;14.85;;;9.02;;
33864;SDS011;20159;51.072;13.526;2022-10-19T01:42:50;10.57;;;7.93;;
33864;SDS011;20159;51.072;13.526;2022-10-19T01:45:26;10.30;;;8.70;;
33864;SDS011;20159;51.072;13.526;2022-10-19T01:48:14;13.00;;;8.40;;
33864;SDS011;20159;51.072;13.526;2022-10-19T01:50:46;14.02;;;8.30;;
33864;SDS011;20159;51.072;13.526;2022-10-19T01:53:19;10.55;;;8.25;;
33864;SDS011;20159;51.072;13.526;2022-10-19T01:55:48;11.88;;;9.23;;
33864;SDS011;20159;51.072;13.526;2022-10-19T01:58:16;9.73;;;8.35;;
33864;SDS011;20159;51.072;13.526;2022-10-19T02:00:47;13.25;;;8.95;;
33864;SDS011;20159;51.072;13.526;2022-10-19T02:03:14;9.05;;;7.72;;
33864;SDS011;20159;51.072;13.526;2022-10-19T02:05:41;14.07;;;8.93;;
33864;SDS011;20159;51.072;13.526;2022-10-19T02:08:11;12.00;;;8.32;;
33864;SDS011;20159;51.072;13.526;2022-10-19T02:10:39;13.30;;;9.77;;
33864;SDS011;20159;51.072;13.526;2022-10-19T02:13:08;11.43;;;8.75;;
33864;SDS011;20159;51.072;13.526;2022-10-19T02:15:37;11.38;;;9.43;;
33864;SDS011;20159;51.072;13.526;2022-10-19T02:18:04;14.63;;;9.40;;
33864;SDS011;20159;51.072;13.526;2022-10-19T02:20:31;12.35;;;9.38;;
33864;SDS011;20159;51.072;13.526;2022-10-19T02:22:59;10.95;;;8.73;;
33864;SDS011;20159;51.072;13.526;2022-10-19T02:25:27;15.32;;;8.77;;
33864;SDS011;20159;51.072;13.526;2022-10-19T02:27:52;12.18;;;8.55;;
33864;SDS011;20159;51.072;13.526;2022-10-19T02:30:18;11.93;;;9.27;;
33864;SDS011;20159;51.072;13.526;2022-10-19T02:32:45;10.63;;;8.95;;
33864;SDS011;20159;51.072;13.526;2022-10-19T02:35:11;13.18;;;10.02;;
33864;SDS011;20159;51.072;13.526;2022-10-19T02:37:38;14.75;;;10.55;;
33864;SDS011;20159;51.072;13.526;2022-10-19T02:40:04;13.52;;;10.30;;
33864;SDS011;20159;51.072;13.526;2022-10-19T02:42:32;18.42;;;11.60;;
33864;SDS011;20159;51.072;13.526;2022-10-19T02:45:17;16.95;;;11.88;;
33864;SDS011;20159;51.072;13.526;2022-10-19T02:47:53;26.00;;;14.85;;
33864;SDS011;20159;51.072;13.526;2022-10-19T02:50:26;21.60;;;15.20;;
33864;SDS011;20159;51.072;13.526;2022-10-19T02:52:51;26.25;;;15.85;;
33864;SDS011;20159;51.072;13.526;2022-10-19T02:55:17;25.50;;;16.58;;
33864;SDS011;20159;51.072;13.526;2022-10-19T02:57:43;23.58;;;17.33;;
33864;SDS011;20159;51.072;13.526;2022-10-19T03:00:09;24.50;;;17.48;;
33864;SDS011;20159;51.072;13.526;2022-10-19T03:02:35;28.88;;;17.45;;
33864;SDS011;20159;51.072;13.526;2022-10-19T03:05:01;24.08;;;17.80;;
33864;SDS011;20159;51.072;13.526;2022-10-19T03:07:27;23.38;;;16.40;;
33864;SDS011;20159;51.072;13.526;2022-10-19T03:09:53;22.60;;;15.85;;
33864;SDS011;20159;51.072;13.526;2022-10-19T03:12:18;19.27;;;14.80;;
33864;SDS011;20159;51.072;13.526;2022-10-19T03:14:44;22.23;;;15.70;;
33864;SDS011;20159;51.072;13.526;2022-10-19T03:17:09;21.23;;;14.90;;
33864;SDS011;20159;51.072;13.526;2022-10-19T03:19:35;23.92;;;15.90;;
33864;SDS011;20159;51.072;13.526;2022-10-19T03:22:01;22.20;;;15.95;;
33864;SDS011;20159;51.072;13.526;2022-10-19T03:24:28;21.45;;;15.15;;
33864;SDS011;20159;51.072;13.526;2022-10-19T03:26:54;24.13;;;16.00;;
33864;SDS011;20159;51.072;13.526;2022-10-19T03:29:20;23.48;;;16.77;;
33864;SDS011;20159;51.072;13.526;2022-10-19T03:31:45;22.50;;;16.48;;
33864;SDS011;20159;51.072;13.526;2022-10-19T03:34:11;21.42;;;16.75;;
33864;SDS011;20159;51.072;13.526;2022-10-19T03:36:37;26.83;;;17.10;;
33864;SDS011;20159;51.072;13.526;2022-10-19T03:39:04;27.17;;;16.50;;
33864;SDS011;20159;51.072;13.526;2022-10-19T03:41:37;28.05;;;16.48;;
33864;SDS011;20159;51.072;13.526;2022-10-19T03:44:04;23.23;;;17.75;;
33864;SDS011;20159;51.072;13.526;2022-10-19T03:46:31;23.52;;;16.25;;
33864;SDS011;20159;51.072;13.526;2022-10-19T03:48:57;24.67;;;16.40;;
33864;SDS011;20159;51.072;13.526;2022-10-19T03:51:23;19.77;;;14.63;;
33864;SDS011;20159;51.072;13.526;2022-10-19T03:53:51;24.23;;;15.35;;
33864;SDS011;20159;51.072;13.526;2022-10-19T03:56:19;20.15;;;14.50;;
33864;SDS011;20159;51.072;13.526;2022-10-19T03:58:47;23.73;;;15.02;;
33864;SDS011;20159;51.072;13.526;2022-10-19T04:01:15;21.90;;;14.98;;
33864;SDS011;20159;51.072;13.526;2022-10-19T04:03:43;22.63;;;14.98;;
33864;SDS011;20159;51.072;13.526;2022-10-19T04:06:10;20.30;;;14.75;;
33864;SDS011;20159;51.072;13.526;2022-10-19T04:08:38;21.10;;;14.98;;
33864;SDS011;20159;51.072;13.526;2022-10-19T04:11:05;21.48;;;14.55;;
33864;SDS011;20159;51.072;13.526;2022-10-19T04:13:34;19.20;;;14.15;;
33864;SDS011;20159;51.072;13.526;2022-10-19T04:16:00;23.60;;;15.63;;
33864;SDS011;20159;51.072;13.526;2022-10-19T04:18:26;18.13;;;13.93;;
33864;SDS011;20159;51.072;13.526;2022-10-19T04:20:55;19.50;;;14.25;;
33864;SDS011;20159;51.072;13.526;2022-10-19T04:23:22;18.63;;;13.40;;
33864;SDS011;20159;51.072;13.526;2022-10-19T04:25:50;18.65;;;12.80;;
33864;SDS011;20159;51.072;13.526;2022-10-19T04:28:22;19.83;;;13.52;;
33864;SDS011;20159;51.072;13.526;2022-10-19T04:30:48;17.60;;;14.10;;
33864;SDS011;20159;51.072;13.526;2022-10-19T04:33:14;16.77;;;12.82;;
33864;SDS011;20159;51.072;13.526;2022-10-19T04:35:39;20.10;;;12.60;;
33864;SDS011;20159;51.072;13.526;2022-10-19T04:38:05;22.60;;;13.15;;
33864;SDS011;20159;51.072;13.526;2022-10-19T04:40:32;18.67;;;12.25;;
33864;SDS011;20159;51.072;13.526;2022-10-19T04:43:02;19.13;;;12.20;;
33864;SDS011;20159;51.072;13.526;2022-10-19T04:45:28;15.77;;;11.63;;
33864;SDS011;20159;51.072;13.526;2022-10-19T04:47:54;17.23;;;12.02;;
33864;SDS011;20159;51.072;13.526;2022-10-19T04:50:22;18.08;;;12.13;;
33864;SDS011;20159;51.072;13.526;2022-10-19T04:52:48;14.38;;;11.48;;
33864;SDS011;20159;51.072;13.526;2022-10-19T04:55:14;17.80;;;10.98;;
33864;SDS011;20159;51.072;13.526;2022-10-19T04:57:40;16.58;;;10.80;;
33864;SDS011;20159;51.072;13.526;2022-10-19T05:00:06;16.30;;;11.55;;
33864;SDS011;20159;51.072;13.526;2022-10-19T05:02:32;15.10;;;10.85;;
33864;SDS011;20159;51.072;13.526;2022-10-19T05:04:57;15.73;;;11.80;;
33864;SDS011;20159;51.072;13.526;2022-10-19T05:07:23;19.23;;;11.85;;
33864;SDS011;20159;51.072;13.526;2022-10-19T05:09:49;17.63;;;10.95;;
33864;SDS011;20159;51.072;13.526;2022-10-19T05:12:14;19.92;;;11.27;;
33864;SDS011;20159;51.072;13.526;2022-10-19T05:14:40;20.02;;;12.23;;
33864;SDS011;20159;51.072;13.526;2022-10-19T05:17:05;18.88;;;12.05;;
33864;SDS011;20159;51.072;13.526;2022-10-19T05:19:31;17.25;;;11.85;;
33864;SDS011;20159;51.072;13.526;2022-10-19T05:21:57;19.52;;;12.27;;
33864;SDS011;20159;51.072;13.526;2022-10-19T05:24:23;15.23;;;11.73;;
33864;SDS011;20159;51.072;13.526;2022-10-19T05:26:48;17.08;;;12.05;;
33864;SDS011;20159;51.072;13.526;2022-10-19T05:29:14;17.13;;;11.45;;
33864;SDS011;20159;51.072;13.526;2022-10-19T05:31:40;15.07;;;10.80;;
33864;SDS011;20159;51.072;13.526;2022-10-19T05:34:05;17.20;;;11.98;;
33864;SDS011;20159;51.072;13.526;2022-10-19T05:36:32;15.25;;;11.10;;
33864;SDS011;20159;51.072;13.526;2022-10-19T05:39:05;15.35;;;10.80;;
33864;SDS011;20159;51.072;13.526;2022-10-19T05:41:33;15.73;;;10.30;;
33864;SDS011;20159;51.072;13.526;2022-10-19T05:44:00;16.70;;;11.20;;
33864;SDS011;20159;51.072;13.526;2022-10-19T05:46:27;16.75;;;10.73;;
33864;SDS011;20159;51.072;13.526;2022-10-19T05:48:54;16.25;;;10.80;;
33864;SDS011;20159;51.072;13.526;2022-10-19T05:51:21;15.30;;;11.25;;
33864;SDS011;20159;51.072;13.526;2022-10-19T05:53:47;18.92;;;10.82;;
33864;SDS011;20159;51.072;13.526;2022-10-19T05:56:14;14.95;;;10.23;;
33864;SDS011;20159;51.072;13.526;2022-10-19T05:58:42;13.82;;;9.68;;
33864;SDS011;20159;51.072;13.526;2022-10-19T06:01:08;14.00;;;9.80;;
33864;SDS011;20159;51.072;13.526;2022-10-19T06:03:43;28.25;;;9.98;;
33864;SDS011;20159;51.072;13.526;2022-10-19T06:06:13;14.98;;;9.00;;
33864;SDS011;20159;51.072;13.526;2022-10-19T06:08:38;12.85;;;9.40;;
33864;SDS011;20159;51.072;13.526;2022-10-19T06:13:34;15.48;;;10.13;;
33864;SDS011;20159;51.072;13.526;2022-10-19T06:16:01;15.05;;;9.70;;
33864;SDS011;20159;51.072;13.526;2022-10-19T06:18:26;14.85;;;9.48;;
33864;SDS011;20159;51.072;13.526;2022-10-19T06:20:53;13.43;;;9.38;;
33864;SDS011;20159;51.072;13.526;2022-10-19T06:23:18;16.05;;;9.20;;
33864;SDS011;20159;51.072;13.526;2022-10-19T06:25:44;12.50;;;9.07;;
33864;SDS011;20159;51.072;13.526;2022-10-19T06:28:10;13.65;;;8.55;;
33864;SDS011;20159;51.072;13.526;2022-10-19T06:30:39;13.38;;;8.65;;
33864;SDS011;20159;51.072;13.526;2022-10-19T06:33:05;10.52;;;8.10;;
33864;SDS011;20159;51.072;13.526;2022-10-19T06:35:31;11.10;;;7.43;;
33864;SDS011;20159;51.072;13.526;2022-10-19T06:37:57;12.05;;;7.90;;
33864;SDS011;20159;51.072;13.526;2022-10-19T06:40:23;15.50;;;7.55;;
33864;SDS011;20159;51.072;13.526;2022-10-19T06:42:49;13.05;;;7.82;;
33864;SDS011;20159;51.072;13.526;2022-10-19T06:45:15;13.25;;;7.47;;
33864;SDS011;20159;51.072;13.526;2022-10-19T06:47:41;20.13;;;7.03;;
33864;SDS011;20159;51.072;13.526;2022-10-19T06:50:07;13.38;;;6.40;;
33864;SDS011;20159;51.072;13.526;2022-10-19T06:52:33;10.18;;;5.90;;
33864;SDS011;20159;51.072;13.526;2022-10-19T06:54:59;12.98;;;5.45;;
33864;SDS011;20159;51.072;13.526;2022-10-19T06:57:25;9.25;;;5.10;;
33864;SDS011;20159;51.072;13.526;2022-10-19T06:59:51;8.40;;;5.07;;
33864;SDS011;20159;51.072;13.526;2022-10-19T07:02:16;8.27;;;4.35;;
33864;SDS011;20159;51.072;13.526;2022-10-19T07:04:42;11.43;;;5.00;;
33864;SDS011;20159;51.072;13.526;2022-10-19T07:07:07;9.70;;;4.32;;
33864;SDS011;20159;51.072;13.526;2022-10-19T07:09:35;6.35;;;4.30;;
33864;SDS011;20159;51.072;13.526;2022-10-19T07:12:04;9.82;;;4.03;;
33864;SDS011;20159;51.072;13.526;2022-10-19T07:14:30;6.40;;;3.90;;
33864;SDS011;20159;51.072;13.526;2022-10-19T07:17:02;10.15;;;4.13;;
33864;SDS011;20159;51.072;13.526;2022-10-19T07:19:29;8.85;;;3.88;;
33864;SDS011;20159;51.072;13.526;2022-10-19T07:21:54;8.88;;;3.75;;
33864;SDS011;20159;51.072;13.526;2022-10-19T07:24:20;8.70;;;3.67;;
33864;SDS011;20159;51.072;13.526;2022-10-19T07:26:46;4.78;;;3.05;;
33864;SDS011;20159;51.072;13.526;2022-10-19T07:29:12;8.00;;;4.20;;
33864;SDS011;20159;51.072;13.526;2022-10-19T07:31:38;6.80;;;3.85;;
33864;SDS011;20159;51.072;13.526;2022-10-19T07:34:03;6.85;;;3.83;;
33864;SDS011;20159;51.072;13.526;2022-10-19T07:36:31;7.47;;;3.97;;
33864;SDS011;20159;51.072;13.526;2022-10-19T07:39:01;7.25;;;4.35;;
33864;SDS011;20159;51.072;13.526;2022-10-19T07:41:29;6.97;;;3.85;;
33864;SDS011;20159;51.072;13.526;2022-10-19T07:43:55;7.05;;;3.67;;
33864;SDS011;20159;51.072;13.526;2022-10-19T07:46:25;5.63;;;3.38;;
33864;SDS011;20159;51.072;13.526;2022-10-19T07:48:57;5.95;;;3.35;;
33864;SDS011;20159;51.072;13.526;2022-10-19T07:51:24;5.57;;;3.80;;
33864;SDS011;20159;51.072;13.526;2022-10-19T07:53:53;6.43;;;3.70;;
33864;SDS011;20159;51.072;13.526;2022-10-19T07:56:20;5.60;;;3.55;;
33864;SDS011;20159;51.072;13.526;2022-10-19T07:58:48;7.22;;;3.50;;
33864;SDS011;20159;51.072;13.526;2022-10-19T08:01:15;7.35;;;3.50;;
33864;SDS011;20159;51.072;13.526;2022-10-19T08:03:43;7.28;;;3.08;;
33864;SDS011;20159;51.072;13.526;2022-10-19T08:06:10;10.85;;;3.42;;
33864;SDS011;20159;51.072;13.526;2022-10-19T08:08:38;8.23;;;3.47;;
33864;SDS011;20159;51.072;13.526;2022-10-19T08:11:05;10.00;;;3.25;;
33864;SDS011;20159;51.072;13.526;2022-10-19T08:13:32;9.05;;;3.50;;
33864;SDS011;20159;51.072;13.526;2022-10-19T08:15:58;4.65;;;2.60;;
33864;SDS011;20159;51.072;13.526;2022-10-19T08:18:23;8.27;;;3.30;;
33864;SDS011;20159;51.072;13.526;2022-10-19T08:20:49;5.68;;;3.35;;
33864;SDS011;20159;51.072;13.526;2022-10-19T08:23:14;7.35;;;3.05;;
33864;SDS011;20159;51.072;13.526;2022-10-19T08:25:40;5.10;;;2.97;;
33864;SDS011;20159;51.072;13.526;2022-10-19T08:28:05;9.88;;;3.38;;
33864;SDS011;20159;51.072;13.526;2022-10-19T08:30:33;6.88;;;3.50;;
33864;SDS011;20159;51.072;13.526;2022-10-19T08:32:59;8.73;;;3.35;;
33864;SDS011;20159;51.072;13.526;2022-10-19T08:35:25;7.65;;;3.85;;
33864;SDS011;20159;51.072;13.526;2022-10-19T08:37:51;9.43;;;4.53;;
33864;SDS011;20159;51.072;13.526;2022-10-19T08:40:17;8.77;;;4.18;;
33864;SDS011;20159;51.072;13.526;2022-10-19T08:45:38;6.38;;;3.30;;
33864;SDS011;20159;51.072;13.526;2022-10-19T08:50:46;6.90;;;3.60;;
33864;SDS011;20159;51.072;13.526;2022-10-19T08:53:14;6.30;;;3.95;;
33864;SDS011;20159;51.072;13.526;2022-10-19T08:56:30;6.72;;;3.25;;
33864;SDS011;20159;51.072;13.526;2022-10-19T08:59:03;7.07;;;3.28;;
33864;SDS011;20159;51.072;13.526;2022-10-19T09:09:48;8.75;;;4.88;;
33864;SDS011;20159;51.072;13.526;2022-10-19T09:12:18;9.52;;;3.70;;
33864;SDS011;20159;51.072;13.526;2022-10-19T09:14:58;6.18;;;3.10;;
33864;SDS011;20159;51.072;13.526;2022-10-19T09:17:28;9.85;;;3.22;;
33864;SDS011;20159;51.072;13.526;2022-10-19T09:19:56;5.80;;;2.70;;
33864;SDS011;20159;51.072;13.526;2022-10-19T09:22:31;6.82;;;2.85;;
33864;SDS011;20159;51.072;13.526;2022-10-19T09:25:04;7.97;;;2.90;;
33864;SDS011;20159;51.072;13.526;2022-10-19T09:27:43;5.78;;;3.10;;
33864;SDS011;20159;51.072;13.526;2022-10-19T09:30:18;7.20;;;3.00;;
33864;SDS011;20159;51.072;13.526;2022-10-19T09:32:46;7.07;;;3.65;;
33864;SDS011;20159;51.072;13.526;2022-10-19T09:35:29;5.88;;;3.17;;
33864;SDS011;20159;51.072;13.526;2022-10-19T09:37:58;5.20;;;3.00;;
33864;SDS011;20159;51.072;13.526;2022-10-19T09:40:25;5.90;;;3.00;;
33864;SDS011;20159;51.072;13.526;2022-10-19T09:42:53;7.05;;;3.03;;
33864;SDS011;20159;51.072;13.526;2022-10-19T09:45:40;6.20;;;2.88;;
33864;SDS011;20159;51.072;13.526;2022-10-19T09:51:12;8.90;;;4.10;;
33864;SDS011;20159;51.072;13.526;2022-10-19T09:53:45;5.10;;;2.50;;
33864;SDS011;20159;51.072;13.526;2022-10-19T09:56:18;4.93;;;2.05;;
33864;SDS011;20159;51.072;13.526;2022-10-19T09:58:48;6.22;;;3.35;;
33864;SDS011;20159;51.072;13.526;2022-10-19T10:01:28;4.63;;;2.08;;
33864;SDS011;20159;51.072;13.526;2022-10-19T10:06:35;3.75;;;2.63;;
33864;SDS011;20159;51.072;13.526;2022-10-19T10:09:03;4.50;;;2.25;;
33864;SDS011;20159;51.072;13.526;2022-10-19T10:11:30;4.43;;;1.90;;
33864;SDS011;20159;51.072;13.526;2022-10-19T10:14:03;4.07;;;1.98;;
33864;SDS011;20159;51.072;13.526;2022-10-19T10:16:42;3.63;;;1.92;;
33864;SDS011;20159;51.072;13.526;2022-10-19T10:19:12;3.97;;;1.90;;
33864;SDS011;20159;51.072;13.526;2022-10-19T10:21:51;3.85;;;1.80;;
33864;SDS011;20159;51.072;13.526;2022-10-19T10:24:21;4.80;;;1.70;;
33864;SDS011;20159;51.072;13.526;2022-10-19T10:26:52;6.00;;;2.00;;
33864;SDS011;20159;51.072;13.526;2022-10-19T10:31:48;4.47;;;1.40;;
33864;SDS011;20159;51.072;13.526;2022-10-19T10:37:02;2.65;;;1.10;;
33864;SDS011;20159;51.072;13.526;2022-10-19T10:39:30;4.22;;;1.23;;
33864;SDS011;20159;51.072;13.526;2022-10-19T10:41:59;4.13;;;1.20;;
33864;SDS011;20159;51.072;13.526;2022-10-19T10:47:00;2.97;;;1.48;;
33864;SDS011;20159;51.072;13.526;2022-10-19T10:49:29;5.30;;;1.67;;
33864;SDS011;20159;51.072;13.526;2022-10-19T10:52:00;4.25;;;1.15;;
33864;SDS011;20159;51.072;13.526;2022-10-19T10:54:30;3.05;;;1.02;;
33864;SDS011;20159;51.072;13.526;2022-10-19T10:57:12;3.42;;;1.10;;
33864;SDS011;20159;51.072;13.526;2022-10-19T11:02:37;2.25;;;1.20;;
33864;SDS011;20159;51.072;13.526;2022-10-19T11:05:11;3.17;;;1.23;;
33864;SDS011;20159;51.072;13.526;2022-10-19T11:07:46;4.03;;;1.15;;
33864;SDS011;20159;51.072;13.526;2022-10-19T11:10:21;3.22;;;1.30;;
33864;SDS011;20159;51.072;13.526;2022-10-19T11:18:26;1.85;;;0.80;;
33864;SDS011;20159;51.072;13.526;2022-10-19T11:21:05;3.15;;;1.27;;
33864;SDS011;20159;51.072;13.526;2022-10-19T11:23:45;3.00;;;1.10;;
33864;SDS011;20159;51.072;13.526;2022-10-19T11:29:12;2.67;;;0.80;;
33864;SDS011;20159;51.072;13.526;2022-10-19T11:31:48;1.50;;;0.70;;
33864;SDS011;20159;51.072;13.526;2022-10-19T11:37:29;1.92;;;0.80;;
33864;SDS011;20159;51.072;13.526;2022-10-19T11:40:12;1.45;;;0.70;;
33864;SDS011;20159;51.072;13.526;2022-10-19T11:42:48;1.05;;;0.60;;
33864;SDS011;20159;51.072;13.526;2022-10-19T11:52:29;1.52;;;0.50;;
33864;SDS011;20159;51.072;13.526;2022-10-19T11:57:00;2.08;;;0.60;;
33864;SDS011;20159;51.072;13.526;2022-10-19T11:59:48;1.70;;;0.50;;
33864;SDS011;20159;51.072;13.526;2022-10-19T12:04:52;2.55;;;0.50;;
33864;SDS011;20159;51.072;13.526;2022-10-19T12:10:11;0.90;;;0.50;;
33864;SDS011;20159;51.072;13.526;2022-10-19T12:13:00;1.50;;;0.60;;
33864;SDS011;20159;51.072;13.526;2022-10-19T12:18:03;2.35;;;0.75;;
33864;SDS011;20159;51.072;13.526;2022-10-19T12:20:54;0.95;;;0.45;;
33864;SDS011;20159;51.072;13.526;2022-10-19T12:23:27;1.65;;;0.70;;
33864;SDS011;20159;51.072;13.526;2022-10-19T12:25:57;2.05;;;0.60;;
33864;SDS011;20159;51.072;13.526;2022-10-19T12:28:27;1.05;;;0.43;;
33864;SDS011;20159;51.072;13.526;2022-10-19T12:30:56;3.17;;;0.70;;
33864;SDS011;20159;51.072;13.526;2022-10-19T12:33:38;1.75;;;0.50;;
33864;SDS011;20159;51.072;13.526;2022-10-19T12:39:00;1.95;;;0.70;;
33864;SDS011;20159;51.072;13.526;2022-10-19T12:44:12;1.00;;;0.45;;
33864;SDS011;20159;51.072;13.526;2022-10-19T12:46:57;1.50;;;0.57;;
33864;SDS011;20159;51.072;13.526;2022-10-19T12:49:34;2.58;;;0.60;;
33864;SDS011;20159;51.072;13.526;2022-10-19T12:52:02;1.85;;;0.50;;
33864;SDS011;20159;51.072;13.526;2022-10-19T12:54:31;1.65;;;0.70;;
33864;SDS011;20159;51.072;13.526;2022-10-19T12:56:59;1.23;;;0.50;;
33864;SDS011;20159;51.072;13.526;2022-10-19T12:59:33;2.47;;;1.02;;
33864;SDS011;20159;51.072;13.526;2022-10-19T13:02:00;1.83;;;0.68;;
33864;SDS011;20159;51.072;13.526;2022-10-19T13:04:29;0.90;;;0.57;;
33864;SDS011;20159;51.072;13.526;2022-10-19T13:09:38;1.98;;;0.50;;
33864;SDS011;20159;51.072;13.526;2022-10-19T13:14:43;1.58;;;0.77;;
33864;SDS011;20159;51.072;13.526;2022-10-19T13:22:44;2.08;;;0.65;;
33864;SDS011;20159;51.072;13.526;2022-10-19T13:27:41;1.08;;;0.60;;
33864;SDS011;20159;51.072;13.526;2022-10-19T13:35:48;1.20;;;0.70;;
33864;SDS011;20159;51.072;13.526;2022-10-19T13:38:36;1.00;;;0.65;;
33864;SDS011;20159;51.072;13.526;2022-10-19T13:41:15;1.10;;;0.60;;
33864;SDS011;20159;51.072;13.526;2022-10-19T13:46:18;2.40;;;0.80;;
33864;SDS011;20159;51.072;13.526;2022-10-19T13:52:02;1.23;;;0.50;;
33864;SDS011;20159;51.072;13.526;2022-10-19T14:01:00;1.35;;;0.50;;
33864;SDS011;20159;51.072;13.526;2022-10-19T14:11:39;2.60;;;0.90;;
33864;SDS011;20159;51.072;13.526;2022-10-19T14:14:09;3.00;;;1.00;;
33864;SDS011;20159;51.072;13.526;2022-10-19T14:19:20;3.25;;;0.90;;
33864;SDS011;20159;51.072;13.526;2022-10-19T14:21:54;2.35;;;0.90;;
33864;SDS011;20159;51.072;13.526;2022-10-19T14:26:55;1.60;;;0.70;;
33864;SDS011;20159;51.072;13.526;2022-10-19T14:29:24;0.95;;;0.70;;
33864;SDS011;20159;51.072;13.526;2022-10-19T14:31:49;2.33;;;0.75;;
33864;SDS011;20159;51.072;13.526;2022-10-19T14:34:16;1.67;;;1.33;;
33864;SDS011;20159;51.072;13.526;2022-10-19T14:36:43;1.92;;;0.90;;
33864;SDS011;20159;51.072;13.526;2022-10-19T14:39:25;2.72;;;0.95;;
33864;SDS011;20159;51.072;13.526;2022-10-19T14:41:56;1.67;;;0.80;;
33864;SDS011;20159;51.072;13.526;2022-10-19T14:44:35;1.33;;;0.73;;
33864;SDS011;20159;51.072;13.526;2022-10-19T14:47:05;0.70;;;0.50;;
33864;SDS011;20159;51.072;13.526;2022-10-19T14:50:01;1.48;;;0.73;;
33864;SDS011;20159;51.072;13.526;2022-10-19T14:52:31;3.90;;;1.30;;
33864;SDS011;20159;51.072;13.526;2022-10-19T14:55:09;3.67;;;0.80;;
33864;SDS011;20159;51.072;13.526;2022-10-19T14:57:40;1.50;;;0.60;;
33864;SDS011;20159;51.072;13.526;2022-10-19T15:00:27;1.67;;;0.50;;
33864;SDS011;20159;51.072;13.526;2022-10-19T15:05:22;1.67;;;0.60;;
33864;SDS011;20159;51.072;13.526;2022-10-19T15:07:51;1.48;;;0.60;;
33864;SDS011;20159;51.072;13.526;2022-10-19T15:10:22;0.85;;;0.40;;
33864;SDS011;20159;51.072;13.526;2022-10-19T15:12:49;2.13;;;0.77;;
33864;SDS011;20159;51.072;13.526;2022-10-19T15:15:18;0.93;;;0.50;;
33864;SDS011;20159;51.072;13.526;2022-10-19T15:20:27;0.63;;;0.50;;
33864;SDS011;20159;51.072;13.526;2022-10-19T15:22:56;1.38;;;0.50;;
33864;SDS011;20159;51.072;13.526;2022-10-19T15:25:24;7.20;;;0.80;;
33864;SDS011;20159;51.072;13.526;2022-10-19T15:27:57;0.63;;;0.35;;
33864;SDS011;20159;51.072;13.526;2022-10-19T15:30:43;3.28;;;0.70;;
33864;SDS011;20159;51.072;13.526;2022-10-19T15:33:20;1.30;;;0.47;;
33864;SDS011;20159;51.072;13.526;2022-10-19T15:35:46;0.90;;;0.40;;
33864;SDS011;20159;51.072;13.526;2022-10-19T15:40:48;0.80;;;0.50;;
33864;SDS011;20159;51.072;13.526;2022-10-19T15:46:03;1.88;;;0.50;;
33864;SDS011;20159;51.072;13.526;2022-10-19T15:48:49;2.60;;;0.57;;
33864;SDS011;20159;51.072;13.526;2022-10-19T15:53:54;1.50;;;0.47;;
33864;SDS011;20159;51.072;13.526;2022-10-19T15:56:22;1.27;;;0.70;;
33864;SDS011;20159;51.072;13.526;2022-10-19T15:58:52;0.88;;;0.50;;
33864;SDS011;20159;51.072;13.526;2022-10-19T16:01:20;1.33;;;0.50;;
33864;SDS011;20159;51.072;13.526;2022-10-19T16:03:48;1.67;;;0.70;;
33864;SDS011;20159;51.072;13.526;2022-10-19T16:06:14;1.40;;;0.60;;
33864;SDS011;20159;51.072;13.526;2022-10-19T16:08:41;1.23;;;0.70;;
33864;SDS011;20159;51.072;13.526;2022-10-19T16:11:11;1.55;;;0.70;;
33864;SDS011;20159;51.072;13.526;2022-10-19T16:13:38;2.60;;;0.82;;
33864;SDS011;20159;51.072;13.526;2022-10-19T16:16:04;0.98;;;0.70;;
33864;SDS011;20159;51.072;13.526;2022-10-19T16:18:30;2.33;;;0.60;;
33864;SDS011;20159;51.072;13.526;2022-10-19T16:20:56;1.55;;;0.77;;
33864;SDS011;20159;51.072;13.526;2022-10-19T16:23:21;4.90;;;2.88;;
33864;SDS011;20159;51.072;13.526;2022-10-19T16:25:47;3.45;;;2.42;;
33864;SDS011;20159;51.072;13.526;2022-10-19T16:28:12;2.67;;;1.65;;
33864;SDS011;20159;51.072;13.526;2022-10-19T16:30:38;1.83;;;1.10;;
33864;SDS011;20159;51.072;13.526;2022-10-19T16:33:04;3.78;;;1.20;;
33864;SDS011;20159;51.072;13.526;2022-10-19T16:35:29;1.70;;;0.80;;
33864;SDS011;20159;51.072;13.526;2022-10-19T16:37:55;5.00;;;1.02;;
33864;SDS011;20159;51.072;13.526;2022-10-19T16:40:20;1.75;;;0.70;;
33864;SDS011;20159;51.072;13.526;2022-10-19T16:42:48;1.92;;;0.75;;
33864;SDS011;20159;51.072;13.526;2022-10-19T16:45:13;1.25;;;0.80;;
33864;SDS011;20159;51.072;13.526;2022-10-19T16:47:39;1.52;;;1.10;;
33864;SDS011;20159;51.072;13.526;2022-10-19T16:50:05;2.25;;;1.00;;
33864;SDS011;20159;51.072;13.526;2022-10-19T16:52:31;1.83;;;1.23;;
33864;SDS011;20159;51.072;13.526;2022-10-19T16:54:57;1.60;;;1.20;;
33864;SDS011;20159;51.072;13.526;2022-10-19T16:57:23;2.65;;;1.23;;
33864;SDS011;20159;51.072;13.526;2022-10-19T16:59:52;2.72;;;1.70;;